Terminal Aerodrome Forecast
Issued by NWS Charleston, WV

Current Version | Previous Version | Graphics & Text | Print | Product List | Glossary On
Versions: 1 2 3 4 5 6 7 8 9 10 11 12 13 14 15
000
FTUS41 KRLX 271100
TAFPKB
TAF
KPKB 271121Z 2712/2812 18004KT P6SM SCT040
     FM271400 18004KT P6SM BKN040
     FM280500 22005KT P6SM -SHRA OVC030
     FM280900 VRB03KT 4SM -SHRA BR OVC020
     FM281100 VRB03KT 2SM -SHRA BR OVC020=

USA.gov is the U.S. government's official web portal to all federal, state and local government web resources and services.